Etusivu
METAR-TAF:

METAR-TAF

Lentoasemat :

Killeen, Texas, Yhdysvallat

Leveyspiiri: 31-05N, Pituuspiiri: 097-41W, korkeus merenpinnasta: 258 m

Tämänhetkinen sää

Tämä raportti tehtiin 13 minuuttia sitten, kello 16.56 UTC
Tuuli 3 kn eri suunnista
Lämpötila 14°C
Kosteus 51%
Ilmanpaine 1028 hPa
Näkyvyys: 16.1 km
selkeää

METAR: KILE 301656Z AUTO VRB03KT 10SM CLR 14/04 A3035 RMK AO2 SLP274 T01390039

Aika: 12:09 (17:09 UTC)


TAF: puuttuu

Säähavainnot ja -ennusteet yli 4000 lentoasemalta (METAR- ja TAF-raportit).

Käytössä olevat sääasemat on merkitty karttaan keltaisilla ja punaisilla pisteillä.

Aseta hiiri pisteen päälle nähdäksesi sääaseman nimen.

Klikkaa sitten nähdäksesi säähavainnot ja -ennusteet.

Kartan vaihtaminen: klikkaa mustalla rastilla varustettuja vihreitä pisteitä, niin voit zoomata sisään; viivalla varustettua vihreää pistettä, niin voit zoomata ulos tai vihreitä nuolia, niin pääset viereisille kartoille.


METAR-TAF: